sensor_id;sensor_type;location;lat;lon;timestamp;P1;durP1;ratioP1;P2;durP2;ratioP2
44995;SDS011;30729;49.486;10.792;2023-02-28T00:02:44;7.43;;;3.53;;
44995;SDS011;30729;49.486;10.792;2023-02-28T00:06:09;7.13;;;3.08;;
44995;SDS011;30729;49.486;10.792;2023-02-28T00:09:33;7.20;;;3.33;;
44995;SDS011;30729;49.486;10.792;2023-02-28T00:13:01;8.48;;;3.35;;
44995;SDS011;30729;49.486;10.792;2023-02-28T00:16:26;9.30;;;3.60;;
44995;SDS011;30729;49.486;10.792;2023-02-28T00:19:50;6.15;;;3.03;;
44995;SDS011;30729;49.486;10.792;2023-02-28T00:23:14;10.93;;;3.47;;
44995;SDS011;30729;49.486;10.792;2023-02-28T00:26:38;7.28;;;3.22;;
44995;SDS011;30729;49.486;10.792;2023-02-28T00:30:03;10.18;;;3.88;;
44995;SDS011;30729;49.486;10.792;2023-02-28T00:33:27;6.75;;;2.90;;
44995;SDS011;30729;49.486;10.792;2023-02-28T00:36:51;7.97;;;3.55;;
44995;SDS011;30729;49.486;10.792;2023-02-28T00:40:15;7.47;;;3.15;;
44995;SDS011;30729;49.486;10.792;2023-02-28T00:43:39;8.73;;;3.33;;
44995;SDS011;30729;49.486;10.792;2023-02-28T00:47:03;12.88;;;3.90;;
44995;SDS011;30729;49.486;10.792;2023-02-28T00:50:27;8.93;;;2.78;;
44995;SDS011;30729;49.486;10.792;2023-02-28T00:53:51;9.75;;;3.15;;
44995;SDS011;30729;49.486;10.792;2023-02-28T00:57:15;7.20;;;3.13;;
44995;SDS011;30729;49.486;10.792;2023-02-28T01:00:39;8.82;;;3.60;;
44995;SDS011;30729;49.486;10.792;2023-02-28T01:04:03;8.50;;;3.20;;
44995;SDS011;30729;49.486;10.792;2023-02-28T01:07:28;7.40;;;3.75;;
44995;SDS011;30729;49.486;10.792;2023-02-28T01:10:52;7.70;;;3.25;;
44995;SDS011;30729;49.486;10.792;2023-02-28T01:14:16;7.72;;;2.85;;
44995;SDS011;30729;49.486;10.792;2023-02-28T01:17:40;7.13;;;3.33;;
44995;SDS011;30729;49.486;10.792;2023-02-28T01:21:08;8.18;;;2.83;;
44995;SDS011;30729;49.486;10.792;2023-02-28T01:24:32;6.28;;;3.33;;
44995;SDS011;30729;49.486;10.792;2023-02-28T01:27:58;6.28;;;2.60;;
44995;SDS011;30729;49.486;10.792;2023-02-28T01:31:22;6.95;;;3.17;;
44995;SDS011;30729;49.486;10.792;2023-02-28T01:34:46;6.57;;;3.03;;
44995;SDS011;30729;49.486;10.792;2023-02-28T01:38:10;7.57;;;3.00;;
44995;SDS011;30729;49.486;10.792;2023-02-28T01:41:34;9.68;;;3.40;;
44995;SDS011;30729;49.486;10.792;2023-02-28T01:45:06;7.57;;;2.85;;
44995;SDS011;30729;49.486;10.792;2023-02-28T01:48:42;7.95;;;3.00;;
44995;SDS011;30729;49.486;10.792;2023-02-28T01:52:07;7.43;;;2.60;;
44995;SDS011;30729;49.486;10.792;2023-02-28T01:55:33;7.38;;;3.17;;
44995;SDS011;30729;49.486;10.792;2023-02-28T01:59:00;7.63;;;3.55;;
44995;SDS011;30729;49.486;10.792;2023-02-28T02:02:29;8.93;;;3.20;;
44995;SDS011;30729;49.486;10.792;2023-02-28T02:05:54;8.88;;;3.65;;
44995;SDS011;30729;49.486;10.792;2023-02-28T02:09:17;5.85;;;2.88;;
44995;SDS011;30729;49.486;10.792;2023-02-28T02:38:48;8.93;;;3.38;;
44995;SDS011;30729;49.486;10.792;2023-02-28T02:42:31;10.75;;;3.97;;
44995;SDS011;30729;49.486;10.792;2023-02-28T02:46:04;6.38;;;2.90;;
44995;SDS011;30729;49.486;10.792;2023-02-28T02:49:36;6.25;;;3.33;;
44995;SDS011;30729;49.486;10.792;2023-02-28T02:53:05;7.50;;;3.85;;
44995;SDS011;30729;49.486;10.792;2023-02-28T02:56:33;9.45;;;3.78;;
44995;SDS011;30729;49.486;10.792;2023-02-28T03:00:04;6.63;;;3.10;;
44995;SDS011;30729;49.486;10.792;2023-02-28T03:03:29;5.95;;;2.72;;
44995;SDS011;30729;49.486;10.792;2023-02-28T03:07:01;8.15;;;3.50;;
44995;SDS011;30729;49.486;10.792;2023-02-28T03:10:33;7.32;;;3.40;;
44995;SDS011;30729;49.486;10.792;2023-02-28T03:28:25;8.70;;;3.42;;
44995;SDS011;30729;49.486;10.792;2023-02-28T03:31:58;8.73;;;3.35;;
44995;SDS011;30729;49.486;10.792;2023-02-28T03:35:33;11.27;;;4.28;;
44995;SDS011;30729;49.486;10.792;2023-02-28T03:39:07;8.15;;;3.88;;
44995;SDS011;30729;49.486;10.792;2023-02-28T03:42:45;8.63;;;4.03;;
44995;SDS011;30729;49.486;10.792;2023-02-28T03:46:17;9.35;;;4.35;;
44995;SDS011;30729;49.486;10.792;2023-02-28T03:49:53;9.55;;;4.28;;
44995;SDS011;30729;49.486;10.792;2023-02-28T03:56:59;7.97;;;4.00;;
44995;SDS011;30729;49.486;10.792;2023-02-28T04:00:31;10.15;;;3.97;;
44995;SDS011;30729;49.486;10.792;2023-02-28T04:03:56;14.88;;;4.32;;
44995;SDS011;30729;49.486;10.792;2023-02-28T04:07:20;11.10;;;4.47;;
44995;SDS011;30729;49.486;10.792;2023-02-28T04:10:45;9.25;;;3.80;;
44995;SDS011;30729;49.486;10.792;2023-02-28T04:14:16;8.30;;;3.90;;
44995;SDS011;30729;49.486;10.792;2023-02-28T04:17:40;8.07;;;4.40;;
44995;SDS011;30729;49.486;10.792;2023-02-28T04:21:05;8.35;;;4.28;;
44995;SDS011;30729;49.486;10.792;2023-02-28T04:24:29;8.63;;;3.70;;
44995;SDS011;30729;49.486;10.792;2023-02-28T04:27:52;11.93;;;4.40;;
44995;SDS011;30729;49.486;10.792;2023-02-28T04:31:16;9.32;;;4.70;;
44995;SDS011;30729;49.486;10.792;2023-02-28T04:34:40;9.55;;;4.53;;
44995;SDS011;30729;49.486;10.792;2023-02-28T04:38:04;10.43;;;4.85;;
44995;SDS011;30729;49.486;10.792;2023-02-28T04:41:29;13.48;;;5.15;;
44995;SDS011;30729;49.486;10.792;2023-02-28T04:45:00;9.27;;;4.20;;
44995;SDS011;30729;49.486;10.792;2023-02-28T04:48:29;11.38;;;4.90;;
44995;SDS011;30729;49.486;10.792;2023-02-28T04:51:53;10.35;;;4.35;;
44995;SDS011;30729;49.486;10.792;2023-02-28T04:55:17;11.20;;;5.30;;
44995;SDS011;30729;49.486;10.792;2023-02-28T04:58:42;12.50;;;4.70;;
44995;SDS011;30729;49.486;10.792;2023-02-28T05:02:06;11.07;;;4.53;;
44995;SDS011;30729;49.486;10.792;2023-02-28T05:05:30;10.90;;;4.90;;
44995;SDS011;30729;49.486;10.792;2023-02-28T05:08:56;8.95;;;4.45;;
44995;SDS011;30729;49.486;10.792;2023-02-28T05:12:20;11.10;;;4.43;;
44995;SDS011;30729;49.486;10.792;2023-02-28T05:15:44;7.88;;;4.45;;
44995;SDS011;30729;49.486;10.792;2023-02-28T05:19:08;13.20;;;6.07;;
44995;SDS011;30729;49.486;10.792;2023-02-28T05:22:35;15.73;;;5.13;;
44995;SDS011;30729;49.486;10.792;2023-02-28T05:25:59;10.52;;;5.20;;
44995;SDS011;30729;49.486;10.792;2023-02-28T05:29:23;16.10;;;5.43;;
44995;SDS011;30729;49.486;10.792;2023-02-28T05:32:49;10.98;;;4.75;;
44995;SDS011;30729;49.486;10.792;2023-02-28T05:36:13;11.27;;;4.88;;
44995;SDS011;30729;49.486;10.792;2023-02-28T05:39:38;12.38;;;5.53;;
44995;SDS011;30729;49.486;10.792;2023-02-28T05:43:03;10.82;;;5.13;;
44995;SDS011;30729;49.486;10.792;2023-02-28T05:46:27;14.13;;;5.70;;
44995;SDS011;30729;49.486;10.792;2023-02-28T05:49:51;13.73;;;6.47;;
44995;SDS011;30729;49.486;10.792;2023-02-28T05:53:15;9.75;;;5.30;;
44995;SDS011;30729;49.486;10.792;2023-02-28T05:56:38;12.20;;;4.88;;
44995;SDS011;30729;49.486;10.792;2023-02-28T06:00:02;9.93;;;4.40;;
44995;SDS011;30729;49.486;10.792;2023-02-28T06:03:44;10.35;;;5.20;;
44995;SDS011;30729;49.486;10.792;2023-02-28T06:07:09;11.15;;;5.00;;
44995;SDS011;30729;49.486;10.792;2023-02-28T06:10:34;14.05;;;6.13;;
44995;SDS011;30729;49.486;10.792;2023-02-28T06:13:58;14.30;;;5.72;;
44995;SDS011;30729;49.486;10.792;2023-02-28T06:17:22;27.30;;;10.40;;
44995;SDS011;30729;49.486;10.792;2023-02-28T06:20:52;16.92;;;7.75;;
44995;SDS011;30729;49.486;10.792;2023-02-28T06:24:17;16.30;;;5.80;;
44995;SDS011;30729;49.486;10.792;2023-02-28T06:27:42;14.80;;;6.75;;
44995;SDS011;30729;49.486;10.792;2023-02-28T06:31:06;15.10;;;8.45;;
44995;SDS011;30729;49.486;10.792;2023-02-28T06:34:31;11.85;;;5.05;;
44995;SDS011;30729;49.486;10.792;2023-02-28T06:37:54;11.25;;;5.20;;
44995;SDS011;30729;49.486;10.792;2023-02-28T06:41:24;14.30;;;6.22;;
44995;SDS011;30729;49.486;10.792;2023-02-28T06:44:54;11.63;;;5.72;;
44995;SDS011;30729;49.486;10.792;2023-02-28T06:48:22;11.93;;;5.90;;
44995;SDS011;30729;49.486;10.792;2023-02-28T06:51:45;12.95;;;6.03;;
44995;SDS011;30729;49.486;10.792;2023-02-28T06:55:09;13.82;;;5.57;;
44995;SDS011;30729;49.486;10.792;2023-02-28T06:58:38;12.18;;;6.95;;
44995;SDS011;30729;49.486;10.792;2023-02-28T07:02:02;15.15;;;7.07;;
44995;SDS011;30729;49.486;10.792;2023-02-28T07:05:26;13.70;;;6.38;;
44995;SDS011;30729;49.486;10.792;2023-02-28T07:08:50;14.80;;;6.65;;
44995;SDS011;30729;49.486;10.792;2023-02-28T07:12:14;13.43;;;5.85;;
44995;SDS011;30729;49.486;10.792;2023-02-28T07:15:38;10.80;;;5.70;;
44995;SDS011;30729;49.486;10.792;2023-02-28T07:19:02;14.55;;;7.00;;
44995;SDS011;30729;49.486;10.792;2023-02-28T07:22:26;17.92;;;7.18;;
44995;SDS011;30729;49.486;10.792;2023-02-28T07:25:50;20.25;;;8.30;;
44995;SDS011;30729;49.486;10.792;2023-02-28T07:29:14;18.40;;;8.30;;
44995;SDS011;30729;49.486;10.792;2023-02-28T07:32:38;14.80;;;7.38;;
44995;SDS011;30729;49.486;10.792;2023-02-28T07:36:06;14.35;;;6.80;;
44995;SDS011;30729;49.486;10.792;2023-02-28T07:39:30;18.30;;;7.28;;
44995;SDS011;30729;49.486;10.792;2023-02-28T07:42:54;12.82;;;6.75;;
44995;SDS011;30729;49.486;10.792;2023-02-28T07:46:20;15.70;;;6.90;;
44995;SDS011;30729;49.486;10.792;2023-02-28T07:49:44;12.93;;;6.15;;
44995;SDS011;30729;49.486;10.792;2023-02-28T07:53:08;12.75;;;6.47;;
44995;SDS011;30729;49.486;10.792;2023-02-28T07:56:32;10.25;;;5.68;;
44995;SDS011;30729;49.486;10.792;2023-02-28T07:59:57;12.10;;;6.00;;
44995;SDS011;30729;49.486;10.792;2023-02-28T08:03:22;11.43;;;5.78;;
44995;SDS011;30729;49.486;10.792;2023-02-28T08:06:46;11.80;;;5.68;;
44995;SDS011;30729;49.486;10.792;2023-02-28T08:10:10;13.05;;;6.05;;
44995;SDS011;30729;49.486;10.792;2023-02-28T08:13:34;12.07;;;6.50;;
44995;SDS011;30729;49.486;10.792;2023-02-28T08:16:58;12.35;;;6.32;;
44995;SDS011;30729;49.486;10.792;2023-02-28T08:20:22;14.38;;;7.25;;
44995;SDS011;30729;49.486;10.792;2023-02-28T08:23:47;14.98;;;7.13;;
44995;SDS011;30729;49.486;10.792;2023-02-28T08:27:11;11.20;;;6.20;;
44995;SDS011;30729;49.486;10.792;2023-02-28T08:30:35;13.45;;;6.40;;
44995;SDS011;30729;49.486;10.792;2023-02-28T08:34:00;11.57;;;4.72;;
44995;SDS011;30729;49.486;10.792;2023-02-28T08:37:24;11.68;;;6.25;;
44995;SDS011;30729;49.486;10.792;2023-02-28T08:40:48;13.07;;;6.15;;
44995;SDS011;30729;49.486;10.792;2023-02-28T08:44:12;16.40;;;6.72;;
44995;SDS011;30729;49.486;10.792;2023-02-28T08:47:37;14.27;;;6.20;;
44995;SDS011;30729;49.486;10.792;2023-02-28T08:51:13;16.50;;;8.23;;
44995;SDS011;30729;49.486;10.792;2023-02-28T08:54:37;12.75;;;6.75;;
44995;SDS011;30729;49.486;10.792;2023-02-28T08:58:01;13.52;;;6.22;;
44995;SDS011;30729;49.486;10.792;2023-02-28T09:01:26;13.27;;;6.20;;
44995;SDS011;30729;49.486;10.792;2023-02-28T09:04:50;11.57;;;6.00;;
44995;SDS011;30729;49.486;10.792;2023-02-28T09:08:18;12.90;;;5.63;;
44995;SDS011;30729;49.486;10.792;2023-02-28T09:11:42;12.13;;;6.35;;
44995;SDS011;30729;49.486;10.792;2023-02-28T09:15:06;10.98;;;6.53;;
44995;SDS011;30729;49.486;10.792;2023-02-28T09:18:31;13.48;;;5.63;;
44995;SDS011;30729;49.486;10.792;2023-02-28T09:21:56;12.40;;;5.60;;
44995;SDS011;30729;49.486;10.792;2023-02-28T09:25:20;10.82;;;5.18;;
44995;SDS011;30729;49.486;10.792;2023-02-28T09:28:44;14.07;;;6.60;;
44995;SDS011;30729;49.486;10.792;2023-02-28T09:32:08;12.25;;;6.18;;
44995;SDS011;30729;49.486;10.792;2023-02-28T09:35:32;15.52;;;7.22;;
44995;SDS011;30729;49.486;10.792;2023-02-28T09:38:58;13.00;;;5.70;;
44995;SDS011;30729;49.486;10.792;2023-02-28T09:42:24;15.05;;;6.68;;
44995;SDS011;30729;49.486;10.792;2023-02-28T09:49:22;14.20;;;6.60;;
44995;SDS011;30729;49.486;10.792;2023-02-28T09:52:54;11.52;;;5.18;;
44995;SDS011;30729;49.486;10.792;2023-02-28T09:56:20;13.50;;;6.53;;
44995;SDS011;30729;49.486;10.792;2023-02-28T10:00:21;13.68;;;6.60;;
44995;SDS011;30729;49.486;10.792;2023-02-28T10:07:27;13.55;;;6.32;;
44995;SDS011;30729;49.486;10.792;2023-02-28T10:11:17;11.45;;;5.93;;
44995;SDS011;30729;49.486;10.792;2023-02-28T10:14:43;12.50;;;6.18;;
44995;SDS011;30729;49.486;10.792;2023-02-28T10:18:11;13.10;;;6.45;;
44995;SDS011;30729;49.486;10.792;2023-02-28T10:25:33;11.25;;;6.10;;
44995;SDS011;30729;49.486;10.792;2023-02-28T10:28:57;15.10;;;6.55;;
44995;SDS011;30729;49.486;10.792;2023-02-28T10:32:27;11.75;;;6.43;;
44995;SDS011;30729;49.486;10.792;2023-02-28T10:35:57;14.65;;;6.82;;
44995;SDS011;30729;49.486;10.792;2023-02-28T10:39:36;12.43;;;6.22;;
44995;SDS011;30729;49.486;10.792;2023-02-28T10:43:17;11.57;;;6.13;;
44995;SDS011;30729;49.486;10.792;2023-02-28T10:46:46;11.43;;;6.82;;
44995;SDS011;30729;49.486;10.792;2023-02-28T10:54:04;10.77;;;6.22;;
44995;SDS011;30729;49.486;10.792;2023-02-28T10:57:39;12.32;;;6.70;;
44995;SDS011;30729;49.486;10.792;2023-02-28T11:01:17;15.07;;;6.15;;
44995;SDS011;30729;49.486;10.792;2023-02-28T11:04:53;11.45;;;6.03;;
44995;SDS011;30729;49.486;10.792;2023-02-28T11:08:17;15.52;;;6.68;;
44995;SDS011;30729;49.486;10.792;2023-02-28T11:11:49;12.18;;;5.90;;
44995;SDS011;30729;49.486;10.792;2023-02-28T11:18:56;12.85;;;6.28;;
44995;SDS011;30729;49.486;10.792;2023-02-28T11:22:27;11.87;;;6.30;;
44995;SDS011;30729;49.486;10.792;2023-02-28T11:25:54;12.20;;;6.35;;
44995;SDS011;30729;49.486;10.792;2023-02-28T11:29:28;12.38;;;6.30;;
44995;SDS011;30729;49.486;10.792;2023-02-28T11:32:52;15.63;;;6.38;;
44995;SDS011;30729;49.486;10.792;2023-02-28T11:36:22;10.70;;;6.18;;
44995;SDS011;30729;49.486;10.792;2023-02-28T11:39:46;14.70;;;5.65;;
44995;SDS011;30729;49.486;10.792;2023-02-28T11:47:00;12.43;;;5.60;;
44995;SDS011;30729;49.486;10.792;2023-02-28T11:50:42;16.02;;;7.25;;
44995;SDS011;30729;49.486;10.792;2023-02-28T12:09:04;11.27;;;5.15;;
44995;SDS011;30729;49.486;10.792;2023-02-28T12:25:00;11.45;;;5.85;;
44995;SDS011;30729;49.486;10.792;2023-02-28T12:28:51;11.85;;;5.22;;
44995;SDS011;30729;49.486;10.792;2023-02-28T12:32:47;13.00;;;5.93;;
44995;SDS011;30729;49.486;10.792;2023-02-28T12:36:16;11.15;;;5.80;;
44995;SDS011;30729;49.486;10.792;2023-02-28T12:39:51;10.85;;;4.82;;
44995;SDS011;30729;49.486;10.792;2023-02-28T12:43:35;11.07;;;5.55;;
44995;SDS011;30729;49.486;10.792;2023-02-28T12:47:08;12.10;;;5.53;;
44995;SDS011;30729;49.486;10.792;2023-02-28T12:50:39;12.30;;;6.05;;
44995;SDS011;30729;49.486;10.792;2023-02-28T13:12:04;11.32;;;5.82;;
44995;SDS011;30729;49.486;10.792;2023-02-28T13:19:25;11.63;;;5.50;;
44995;SDS011;30729;49.486;10.792;2023-02-28T13:23:02;10.43;;;5.47;;
44995;SDS011;30729;49.486;10.792;2023-02-28T13:37:32;13.20;;;5.72;;
44995;SDS011;30729;49.486;10.792;2023-02-28T13:48:34;11.52;;;6.40;;
44995;SDS011;30729;49.486;10.792;2023-02-28T13:55:45;13.10;;;6.32;;
44995;SDS011;30729;49.486;10.792;2023-02-28T13:59:37;12.40;;;5.85;;
44995;SDS011;30729;49.486;10.792;2023-02-28T14:07:03;10.18;;;5.47;;
44995;SDS011;30729;49.486;10.792;2023-02-28T14:10:50;10.57;;;5.75;;
44995;SDS011;30729;49.486;10.792;2023-02-28T14:32:41;13.70;;;6.28;;
44995;SDS011;30729;49.486;10.792;2023-02-28T14:36:25;10.93;;;6.00;;
44995;SDS011;30729;49.486;10.792;2023-02-28T14:39:55;11.00;;;5.78;;
44995;SDS011;30729;49.486;10.792;2023-02-28T14:43:22;11.93;;;6.97;;
44995;SDS011;30729;49.486;10.792;2023-02-28T14:46:55;12.48;;;6.22;;
44995;SDS011;30729;49.486;10.792;2023-02-28T14:50:24;14.40;;;6.93;;
44995;SDS011;30729;49.486;10.792;2023-02-28T14:53:51;10.90;;;5.97;;
44995;SDS011;30729;49.486;10.792;2023-02-28T14:57:23;17.17;;;7.32;;
44995;SDS011;30729;49.486;10.792;2023-02-28T15:01:05;12.50;;;6.25;;
44995;SDS011;30729;49.486;10.792;2023-02-28T15:04:53;12.15;;;6.30;;
44995;SDS011;30729;49.486;10.792;2023-02-28T15:08:19;11.70;;;6.07;;
44995;SDS011;30729;49.486;10.792;2023-02-28T15:11:47;16.48;;;7.15;;
44995;SDS011;30729;49.486;10.792;2023-02-28T15:15:24;12.32;;;6.85;;
44995;SDS011;30729;49.486;10.792;2023-02-28T15:18:55;13.18;;;7.18;;
44995;SDS011;30729;49.486;10.792;2023-02-28T15:22:31;12.60;;;6.60;;
44995;SDS011;30729;49.486;10.792;2023-02-28T15:25:59;13.07;;;6.40;;
44995;SDS011;30729;49.486;10.792;2023-02-28T15:29:25;14.15;;;6.60;;
44995;SDS011;30729;49.486;10.792;2023-02-28T15:37:00;13.95;;;6.85;;
44995;SDS011;30729;49.486;10.792;2023-02-28T15:40:46;13.05;;;6.43;;
44995;SDS011;30729;49.486;10.792;2023-02-28T15:44:17;18.67;;;7.68;;
44995;SDS011;30729;49.486;10.792;2023-02-28T15:47:57;14.95;;;8.00;;
44995;SDS011;30729;49.486;10.792;2023-02-28T15:51:32;13.85;;;6.75;;
44995;SDS011;30729;49.486;10.792;2023-02-28T15:55:16;18.80;;;7.55;;
44995;SDS011;30729;49.486;10.792;2023-02-28T15:58:48;13.00;;;6.32;;
44995;SDS011;30729;49.486;10.792;2023-02-28T16:02:32;18.42;;;7.85;;
44995;SDS011;30729;49.486;10.792;2023-02-28T16:09:45;16.30;;;8.30;;
44995;SDS011;30729;49.486;10.792;2023-02-28T16:13:08;15.57;;;8.30;;
44995;SDS011;30729;49.486;10.792;2023-02-28T16:16:46;15.60;;;7.70;;
44995;SDS011;30729;49.486;10.792;2023-02-28T16:20:16;16.20;;;7.78;;
44995;SDS011;30729;49.486;10.792;2023-02-28T16:23:40;14.73;;;7.70;;
44995;SDS011;30729;49.486;10.792;2023-02-28T16:27:05;15.02;;;8.27;;
44995;SDS011;30729;49.486;10.792;2023-02-28T16:30:30;17.25;;;8.10;;
44995;SDS011;30729;49.486;10.792;2023-02-28T16:33:54;15.15;;;8.27;;
44995;SDS011;30729;49.486;10.792;2023-02-28T16:37:18;15.63;;;8.18;;
44995;SDS011;30729;49.486;10.792;2023-02-28T16:40:42;16.35;;;8.60;;
44995;SDS011;30729;49.486;10.792;2023-02-28T16:44:13;19.35;;;8.05;;
44995;SDS011;30729;49.486;10.792;2023-02-28T16:47:50;15.02;;;7.40;;
44995;SDS011;30729;49.486;10.792;2023-02-28T16:51:16;13.57;;;7.32;;
44995;SDS011;30729;49.486;10.792;2023-02-28T16:54:41;19.58;;;9.07;;
44995;SDS011;30729;49.486;10.792;2023-02-28T16:58:05;16.40;;;8.10;;
44995;SDS011;30729;49.486;10.792;2023-02-28T17:01:29;16.00;;;9.10;;
44995;SDS011;30729;49.486;10.792;2023-02-28T17:04:53;19.17;;;9.98;;
44995;SDS011;30729;49.486;10.792;2023-02-28T17:08:17;21.52;;;12.90;;
44995;SDS011;30729;49.486;10.792;2023-02-28T17:11:42;28.83;;;15.60;;
44995;SDS011;30729;49.486;10.792;2023-02-28T17:15:06;25.20;;;13.30;;
44995;SDS011;30729;49.486;10.792;2023-02-28T17:18:31;25.23;;;12.60;;
44995;SDS011;30729;49.486;10.792;2023-02-28T17:21:55;22.75;;;13.05;;
44995;SDS011;30729;49.486;10.792;2023-02-28T17:25:19;24.60;;;13.07;;
44995;SDS011;30729;49.486;10.792;2023-02-28T17:28:51;18.92;;;10.95;;
44995;SDS011;30729;49.486;10.792;2023-02-28T17:32:15;18.48;;;10.43;;
44995;SDS011;30729;49.486;10.792;2023-02-28T17:35:39;18.60;;;10.52;;
44995;SDS011;30729;49.486;10.792;2023-02-28T17:39:04;17.95;;;9.57;;
44995;SDS011;30729;49.486;10.792;2023-02-28T17:42:43;19.38;;;9.25;;
44995;SDS011;30729;49.486;10.792;2023-02-28T17:46:14;17.00;;;8.13;;
44995;SDS011;30729;49.486;10.792;2023-02-28T17:49:39;19.00;;;9.25;;
44995;SDS011;30729;49.486;10.792;2023-02-28T17:53:03;16.73;;;8.68;;
44995;SDS011;30729;49.486;10.792;2023-02-28T17:56:27;14.93;;;8.77;;
44995;SDS011;30729;49.486;10.792;2023-02-28T17:59:50;16.73;;;8.57;;
44995;SDS011;30729;49.486;10.792;2023-02-28T18:03:18;16.33;;;8.77;;
44995;SDS011;30729;49.486;10.792;2023-02-28T18:06:43;18.02;;;9.23;;
44995;SDS011;30729;49.486;10.792;2023-02-28T18:10:16;18.40;;;8.68;;
44995;SDS011;30729;49.486;10.792;2023-02-28T18:13:44;18.83;;;8.93;;
44995;SDS011;30729;49.486;10.792;2023-02-28T18:17:11;20.80;;;9.52;;
44995;SDS011;30729;49.486;10.792;2023-02-28T18:20:35;19.33;;;9.85;;
44995;SDS011;30729;49.486;10.792;2023-02-28T18:24:00;21.63;;;9.98;;
44995;SDS011;30729;49.486;10.792;2023-02-28T18:27:24;18.83;;;10.02;;
44995;SDS011;30729;49.486;10.792;2023-02-28T18:30:48;21.45;;;10.52;;
44995;SDS011;30729;49.486;10.792;2023-02-28T18:34:13;19.90;;;9.73;;
44995;SDS011;30729;49.486;10.792;2023-02-28T18:37:37;19.58;;;10.07;;
44995;SDS011;30729;49.486;10.792;2023-02-28T18:41:02;20.70;;;11.90;;
44995;SDS011;30729;49.486;10.792;2023-02-28T18:44:26;24.83;;;11.55;;
44995;SDS011;30729;49.486;10.792;2023-02-28T18:47:50;23.63;;;12.32;;
44995;SDS011;30729;49.486;10.792;2023-02-28T18:51:15;23.08;;;12.13;;
44995;SDS011;30729;49.486;10.792;2023-02-28T18:54:39;24.13;;;12.68;;
44995;SDS011;30729;49.486;10.792;2023-02-28T18:58:03;22.25;;;12.77;;
44995;SDS011;30729;49.486;10.792;2023-02-28T19:01:27;20.23;;;11.02;;
44995;SDS011;30729;49.486;10.792;2023-02-28T19:04:52;21.95;;;11.07;;
44995;SDS011;30729;49.486;10.792;2023-02-28T19:08:25;22.50;;;11.90;;
44995;SDS011;30729;49.486;10.792;2023-02-28T19:11:48;22.20;;;11.90;;
44995;SDS011;30729;49.486;10.792;2023-02-28T19:15:12;21.98;;;11.30;;
44995;SDS011;30729;49.486;10.792;2023-02-28T19:18:37;21.60;;;10.35;;
44995;SDS011;30729;49.486;10.792;2023-02-28T19:22:01;20.75;;;10.80;;
44995;SDS011;30729;49.486;10.792;2023-02-28T19:25:26;24.20;;;11.73;;
44995;SDS011;30729;49.486;10.792;2023-02-28T19:28:50;20.25;;;11.02;;
44995;SDS011;30729;49.486;10.792;2023-02-28T19:32:16;22.23;;;10.35;;
44995;SDS011;30729;49.486;10.792;2023-02-28T19:35:40;19.27;;;10.50;;
44995;SDS011;30729;49.486;10.792;2023-02-28T19:39:04;19.98;;;11.18;;
44995;SDS011;30729;49.486;10.792;2023-02-28T19:42:28;22.20;;;10.73;;
44995;SDS011;30729;49.486;10.792;2023-02-28T19:45:52;20.08;;;11.27;;
44995;SDS011;30729;49.486;10.792;2023-02-28T19:49:16;20.60;;;11.18;;
44995;SDS011;30729;49.486;10.792;2023-02-28T19:52:41;20.08;;;10.57;;
44995;SDS011;30729;49.486;10.792;2023-02-28T19:56:05;22.65;;;10.63;;
44995;SDS011;30729;49.486;10.792;2023-02-28T19:59:29;20.30;;;10.63;;
44995;SDS011;30729;49.486;10.792;2023-02-28T20:02:53;19.13;;;10.45;;
44995;SDS011;30729;49.486;10.792;2023-02-28T20:06:17;21.60;;;11.43;;
44995;SDS011;30729;49.486;10.792;2023-02-28T20:09:44;21.25;;;10.38;;
44995;SDS011;30729;49.486;10.792;2023-02-28T20:13:08;24.55;;;12.27;;
44995;SDS011;30729;49.486;10.792;2023-02-28T20:16:32;27.10;;;13.20;;
44995;SDS011;30729;49.486;10.792;2023-02-28T20:19:55;25.27;;;12.00;;
44995;SDS011;30729;49.486;10.792;2023-02-28T20:23:20;25.15;;;12.77;;
44995;SDS011;30729;49.486;10.792;2023-02-28T20:26:47;22.95;;;12.35;;
44995;SDS011;30729;49.486;10.792;2023-02-28T20:30:11;25.25;;;12.45;;
44995;SDS011;30729;49.486;10.792;2023-02-28T20:33:40;25.38;;;12.38;;
44995;SDS011;30729;49.486;10.792;2023-02-28T20:37:04;25.60;;;13.18;;
44995;SDS011;30729;49.486;10.792;2023-02-28T20:40:28;21.88;;;11.80;;
44995;SDS011;30729;49.486;10.792;2023-02-28T20:43:55;23.17;;;10.90;;
44995;SDS011;30729;49.486;10.792;2023-02-28T20:47:19;23.17;;;11.35;;
44995;SDS011;30729;49.486;10.792;2023-02-28T20:50:50;22.23;;;10.60;;
44995;SDS011;30729;49.486;10.792;2023-02-28T20:54:14;23.15;;;11.52;;
44995;SDS011;30729;49.486;10.792;2023-02-28T20:57:38;24.23;;;11.73;;
44995;SDS011;30729;49.486;10.792;2023-02-28T21:01:06;21.67;;;10.38;;
44995;SDS011;30729;49.486;10.792;2023-02-28T21:04:31;23.58;;;11.27;;
44995;SDS011;30729;49.486;10.792;2023-02-28T21:07:54;25.88;;;12.45;;
44995;SDS011;30729;49.486;10.792;2023-02-28T21:11:23;25.10;;;12.60;;
44995;SDS011;30729;49.486;10.792;2023-02-28T21:14:47;21.75;;;11.82;;
44995;SDS011;30729;49.486;10.792;2023-02-28T21:18:11;24.67;;;12.07;;
44995;SDS011;30729;49.486;10.792;2023-02-28T21:21:37;21.48;;;11.02;;
44995;SDS011;30729;49.486;10.792;2023-02-28T21:25:01;21.77;;;10.48;;
44995;SDS011;30729;49.486;10.792;2023-02-28T21:28:29;23.58;;;11.68;;
44995;SDS011;30729;49.486;10.792;2023-02-28T21:31:53;21.27;;;10.95;;
44995;SDS011;30729;49.486;10.792;2023-02-28T21:35:17;18.80;;;10.60;;
44995;SDS011;30729;49.486;10.792;2023-02-28T21:38:42;23.13;;;10.98;;
44995;SDS011;30729;49.486;10.792;2023-02-28T21:42:07;26.52;;;11.77;;
44995;SDS011;30729;49.486;10.792;2023-02-28T21:45:32;21.55;;;10.73;;
44995;SDS011;30729;49.486;10.792;2023-02-28T21:48:57;20.95;;;10.57;;
44995;SDS011;30729;49.486;10.792;2023-02-28T21:52:21;19.30;;;9.88;;
44995;SDS011;30729;49.486;10.792;2023-02-28T21:55:44;17.98;;;9.40;;
44995;SDS011;30729;49.486;10.792;2023-02-28T21:59:08;22.10;;;9.85;;
44995;SDS011;30729;49.486;10.792;2023-02-28T22:02:35;20.55;;;10.20;;
44995;SDS011;30729;49.486;10.792;2023-02-28T22:05:59;20.83;;;11.35;;
44995;SDS011;30729;49.486;10.792;2023-02-28T22:09:23;20.35;;;10.32;;
44995;SDS011;30729;49.486;10.792;2023-02-28T22:12:50;16.95;;;9.55;;
44995;SDS011;30729;49.486;10.792;2023-02-28T22:16:17;21.23;;;10.17;;
44995;SDS011;30729;49.486;10.792;2023-02-28T22:19:41;24.05;;;10.70;;
44995;SDS011;30729;49.486;10.792;2023-02-28T22:23:05;23.95;;;10.93;;
44995;SDS011;30729;49.486;10.792;2023-02-28T22:26:29;20.65;;;9.90;;
44995;SDS011;30729;49.486;10.792;2023-02-28T22:29:54;20.05;;;9.80;;
44995;SDS011;30729;49.486;10.792;2023-02-28T22:33:18;21.77;;;10.70;;
44995;SDS011;30729;49.486;10.792;2023-02-28T22:36:42;23.10;;;11.23;;
44995;SDS011;30729;49.486;10.792;2023-02-28T22:40:07;17.17;;;8.98;;
44995;SDS011;30729;49.486;10.792;2023-02-28T22:43:31;17.13;;;9.10;;
44995;SDS011;30729;49.486;10.792;2023-02-28T22:46:55;19.30;;;9.00;;
44995;SDS011;30729;49.486;10.792;2023-02-28T22:50:19;20.40;;;9.40;;
44995;SDS011;30729;49.486;10.792;2023-02-28T22:53:45;18.67;;;9.25;;
44995;SDS011;30729;49.486;10.792;2023-02-28T22:57:12;21.05;;;9.90;;
44995;SDS011;30729;49.486;10.792;2023-02-28T23:00:36;22.42;;;11.13;;